sensor_id;sensor_type;location;lat;lon;timestamp;P1;durP1;ratioP1;P2;durP2;ratioP2
72198;SDS011;60103;51.014;16.992;2022-11-12T00:00:57;28.60;;;11.20;;
72198;SDS011;60103;51.014;16.992;2022-11-12T00:03:44;31.20;;;11.20;;
72198;SDS011;60103;51.014;16.992;2022-11-12T00:06:30;30.40;;;11.60;;
72198;SDS011;60103;51.014;16.992;2022-11-12T00:09:16;25.40;;;11.20;;
72198;SDS011;60103;51.014;16.992;2022-11-12T00:12:02;30.20;;;10.50;;
72198;SDS011;60103;51.014;16.992;2022-11-12T00:14:48;27.70;;;10.30;;
72198;SDS011;60103;51.014;16.992;2022-11-12T00:17:35;28.70;;;11.40;;
72198;SDS011;60103;51.014;16.992;2022-11-12T00:20:21;29.00;;;11.30;;
72198;SDS011;60103;51.014;16.992;2022-11-12T00:23:07;33.90;;;11.50;;
72198;SDS011;60103;51.014;16.992;2022-11-12T00:25:57;31.10;;;12.40;;
72198;SDS011;60103;51.014;16.992;2022-11-12T00:28:44;30.60;;;12.30;;
72198;SDS011;60103;51.014;16.992;2022-11-12T00:31:30;28.70;;;10.80;;
72198;SDS011;60103;51.014;16.992;2022-11-12T00:34:16;30.50;;;11.20;;
72198;SDS011;60103;51.014;16.992;2022-11-12T00:37:02;31.70;;;11.20;;
72198;SDS011;60103;51.014;16.992;2022-11-12T00:39:48;29.20;;;11.30;;
72198;SDS011;60103;51.014;16.992;2022-11-12T00:42:34;28.80;;;10.80;;
72198;SDS011;60103;51.014;16.992;2022-11-12T00:45:22;30.70;;;10.80;;
72198;SDS011;60103;51.014;16.992;2022-11-12T00:48:09;27.50;;;10.00;;
72198;SDS011;60103;51.014;16.992;2022-11-12T00:50:59;25.10;;;9.50;;
72198;SDS011;60103;51.014;16.992;2022-11-12T00:53:48;25.20;;;10.10;;
72198;SDS011;60103;51.014;16.992;2022-11-12T00:56:34;25.00;;;10.50;;
72198;SDS011;60103;51.014;16.992;2022-11-12T00:59:21;22.90;;;9.60;;
72198;SDS011;60103;51.014;16.992;2022-11-12T01:02:07;24.60;;;9.20;;
72198;SDS011;60103;51.014;16.992;2022-11-12T01:04:54;25.10;;;9.80;;
72198;SDS011;60103;51.014;16.992;2022-11-12T01:07:41;23.40;;;10.10;;
72198;SDS011;60103;51.014;16.992;2022-11-12T01:10:27;20.90;;;9.00;;
72198;SDS011;60103;51.014;16.992;2022-11-12T01:13:13;24.50;;;10.60;;
72198;SDS011;60103;51.014;16.992;2022-11-12T01:16:03;23.20;;;9.80;;
72198;SDS011;60103;51.014;16.992;2022-11-12T01:18:59;20.10;;;8.70;;
72198;SDS011;60103;51.014;16.992;2022-11-12T01:21:48;24.30;;;9.80;;
72198;SDS011;60103;51.014;16.992;2022-11-12T01:24:34;21.10;;;9.00;;
72198;SDS011;60103;51.014;16.992;2022-11-12T01:27:20;19.60;;;8.50;;
72198;SDS011;60103;51.014;16.992;2022-11-12T01:30:06;21.30;;;9.10;;
72198;SDS011;60103;51.014;16.992;2022-11-12T01:32:53;20.40;;;7.90;;
72198;SDS011;60103;51.014;16.992;2022-11-12T01:35:39;20.70;;;8.50;;
72198;SDS011;60103;51.014;16.992;2022-11-12T01:38:26;21.30;;;9.00;;
72198;SDS011;60103;51.014;16.992;2022-11-12T01:41:15;19.70;;;8.90;;
72198;SDS011;60103;51.014;16.992;2022-11-12T01:44:16;22.60;;;10.30;;
72198;SDS011;60103;51.014;16.992;2022-11-12T01:47:16;21.70;;;9.10;;
72198;SDS011;60103;51.014;16.992;2022-11-12T01:50:11;27.60;;;10.40;;
72198;SDS011;60103;51.014;16.992;2022-11-12T01:53:07;20.40;;;8.80;;
72198;SDS011;60103;51.014;16.992;2022-11-12T01:55:55;23.70;;;9.10;;
72198;SDS011;60103;51.014;16.992;2022-11-12T01:58:41;22.70;;;9.50;;
72198;SDS011;60103;51.014;16.992;2022-11-12T02:01:29;21.10;;;8.70;;
72198;SDS011;60103;51.014;16.992;2022-11-12T02:04:15;21.60;;;7.70;;
72198;SDS011;60103;51.014;16.992;2022-11-12T02:07:02;24.00;;;9.10;;
72198;SDS011;60103;51.014;16.992;2022-11-12T02:09:48;23.10;;;8.70;;
72198;SDS011;60103;51.014;16.992;2022-11-12T02:12:35;19.80;;;7.70;;
72198;SDS011;60103;51.014;16.992;2022-11-12T02:15:40;21.90;;;7.80;;
72198;SDS011;60103;51.014;16.992;2022-11-12T02:18:27;21.70;;;8.10;;
72198;SDS011;60103;51.014;16.992;2022-11-12T02:21:17;20.80;;;8.10;;
72198;SDS011;60103;51.014;16.992;2022-11-12T02:26:57;27.70;;;10.50;;
72198;SDS011;60103;51.014;16.992;2022-11-12T02:29:45;21.40;;;9.00;;
72198;SDS011;60103;51.014;16.992;2022-11-12T02:32:31;22.30;;;8.50;;
72198;SDS011;60103;51.014;16.992;2022-11-12T02:35:17;20.50;;;8.20;;
72198;SDS011;60103;51.014;16.992;2022-11-12T02:38:03;21.50;;;6.90;;
72198;SDS011;60103;51.014;16.992;2022-11-12T02:40:50;19.20;;;7.50;;
72198;SDS011;60103;51.014;16.992;2022-11-12T02:43:37;20.40;;;7.80;;
72198;SDS011;60103;51.014;16.992;2022-11-12T02:46:24;24.10;;;8.20;;
72198;SDS011;60103;51.014;16.992;2022-11-12T02:49:10;23.90;;;9.20;;
72198;SDS011;60103;51.014;16.992;2022-11-12T02:51:56;24.10;;;8.70;;
72198;SDS011;60103;51.014;16.992;2022-11-12T02:54:42;21.50;;;7.60;;
72198;SDS011;60103;51.014;16.992;2022-11-12T02:57:28;18.60;;;6.70;;
72198;SDS011;60103;51.014;16.992;2022-11-12T03:00:15;15.70;;;6.60;;
72198;SDS011;60103;51.014;16.992;2022-11-12T03:03:02;18.50;;;6.60;;
72198;SDS011;60103;51.014;16.992;2022-11-12T03:05:55;16.10;;;6.40;;
72198;SDS011;60103;51.014;16.992;2022-11-12T03:08:43;18.70;;;7.20;;
72198;SDS011;60103;51.014;16.992;2022-11-12T03:11:30;15.70;;;5.70;;
72198;SDS011;60103;51.014;16.992;2022-11-12T03:14:16;15.20;;;6.10;;
72198;SDS011;60103;51.014;16.992;2022-11-12T03:17:03;14.40;;;5.40;;
72198;SDS011;60103;51.014;16.992;2022-11-12T03:19:49;13.40;;;5.00;;
72198;SDS011;60103;51.014;16.992;2022-11-12T03:22:35;12.70;;;4.80;;
72198;SDS011;60103;51.014;16.992;2022-11-12T08:12:39;14.30;;;6.60;;
72198;SDS011;60103;51.014;16.992;2022-11-12T08:15:26;16.30;;;7.10;;
72198;SDS011;60103;51.014;16.992;2022-11-12T08:18:12;19.40;;;6.90;;
72198;SDS011;60103;51.014;16.992;2022-11-12T08:20:59;15.60;;;6.40;;
72198;SDS011;60103;51.014;16.992;2022-11-12T08:23:48;15.80;;;7.00;;
72198;SDS011;60103;51.014;16.992;2022-11-12T08:26:34;16.10;;;6.80;;
72198;SDS011;60103;51.014;16.992;2022-11-12T08:29:20;14.60;;;6.20;;
72198;SDS011;60103;51.014;16.992;2022-11-12T08:32:08;17.10;;;7.40;;
72198;SDS011;60103;51.014;16.992;2022-11-12T08:34:54;16.70;;;6.80;;
72198;SDS011;60103;51.014;16.992;2022-11-12T08:37:40;15.90;;;7.10;;
72198;SDS011;60103;51.014;16.992;2022-11-12T08:40:26;17.30;;;6.90;;
72198;SDS011;60103;51.014;16.992;2022-11-12T08:43:14;19.70;;;7.00;;
72198;SDS011;60103;51.014;16.992;2022-11-12T08:46:01;16.50;;;7.20;;
72198;SDS011;60103;51.014;16.992;2022-11-12T08:48:48;16.40;;;6.80;;
72198;SDS011;60103;51.014;16.992;2022-11-12T08:51:34;14.80;;;5.90;;
72198;SDS011;60103;51.014;16.992;2022-11-12T08:54:21;14.00;;;5.90;;
72198;SDS011;60103;51.014;16.992;2022-11-12T08:57:07;14.70;;;6.70;;
72198;SDS011;60103;51.014;16.992;2022-11-12T08:59:52;13.20;;;5.80;;
72198;SDS011;60103;51.014;16.992;2022-11-12T09:02:38;11.90;;;4.50;;
72198;SDS011;60103;51.014;16.992;2022-11-12T09:05:25;8.90;;;3.10;;
72198;SDS011;60103;51.014;16.992;2022-11-12T09:08:13;12.60;;;4.00;;
72198;SDS011;60103;51.014;16.992;2022-11-12T09:11:01;9.70;;;3.90;;
72198;SDS011;60103;51.014;16.992;2022-11-12T09:13:48;10.80;;;3.90;;
72198;SDS011;60103;51.014;16.992;2022-11-12T09:16:35;9.20;;;3.30;;
72198;SDS011;60103;51.014;16.992;2022-11-12T09:19:21;9.60;;;3.50;;
72198;SDS011;60103;51.014;16.992;2022-11-12T09:22:06;10.10;;;3.20;;
72198;SDS011;60103;51.014;16.992;2022-11-12T09:24:53;7.70;;;2.80;;
72198;SDS011;60103;51.014;16.992;2022-11-12T09:27:39;10.60;;;3.90;;
72198;SDS011;60103;51.014;16.992;2022-11-12T09:30:32;9.40;;;3.80;;
72198;SDS011;60103;51.014;16.992;2022-11-12T09:33:26;11.80;;;4.60;;
72198;SDS011;60103;51.014;16.992;2022-11-12T09:36:14;11.70;;;4.10;;
72198;SDS011;60103;51.014;16.992;2022-11-12T09:39:02;8.40;;;3.20;;
72198;SDS011;60103;51.014;16.992;2022-11-12T09:41:48;11.40;;;3.60;;
72198;SDS011;60103;51.014;16.992;2022-11-12T09:44:43;10.40;;;3.50;;
72198;SDS011;60103;51.014;16.992;2022-11-12T09:47:36;9.70;;;3.90;;
72198;SDS011;60103;51.014;16.992;2022-11-12T09:53:43;11.90;;;4.30;;
72198;SDS011;60103;51.014;16.992;2022-11-12T09:56:32;10.60;;;3.50;;
72198;SDS011;60103;51.014;16.992;2022-11-12T09:59:18;10.40;;;3.10;;
72198;SDS011;60103;51.014;16.992;2022-11-12T10:07:45;10.50;;;3.80;;
72198;SDS011;60103;51.014;16.992;2022-11-12T10:13:58;12.40;;;3.50;;
72198;SDS011;60103;51.014;16.992;2022-11-12T10:20:30;10.30;;;4.10;;
72198;SDS011;60103;51.014;16.992;2022-11-12T10:23:28;9.10;;;3.50;;
72198;SDS011;60103;51.014;16.992;2022-11-12T10:26:19;7.80;;;2.10;;
72198;SDS011;60103;51.014;16.992;2022-11-12T10:31:59;12.60;;;3.70;;
72198;SDS011;60103;51.014;16.992;2022-11-12T10:34:47;10.60;;;3.60;;
72198;SDS011;60103;51.014;16.992;2022-11-12T10:46:18;10.20;;;3.30;;
72198;SDS011;60103;51.014;16.992;2022-11-12T10:49:10;10.10;;;3.80;;
72198;SDS011;60103;51.014;16.992;2022-11-12T10:52:21;10.80;;;4.20;;
72198;SDS011;60103;51.014;16.992;2022-11-12T10:55:19;10.90;;;3.70;;
72198;SDS011;60103;51.014;16.992;2022-11-12T11:01:02;10.50;;;3.40;;
72198;SDS011;60103;51.014;16.992;2022-11-12T11:03:53;12.50;;;4.10;;
72198;SDS011;60103;51.014;16.992;2022-11-12T11:06:41;9.80;;;3.60;;
72198;SDS011;60103;51.014;16.992;2022-11-12T11:09:27;10.80;;;3.90;;
72198;SDS011;60103;51.014;16.992;2022-11-12T11:12:32;10.60;;;3.70;;
72198;SDS011;60103;51.014;16.992;2022-11-12T11:15:20;10.40;;;3.30;;
72198;SDS011;60103;51.014;16.992;2022-11-12T11:18:11;10.50;;;3.80;;
72198;SDS011;60103;51.014;16.992;2022-11-12T11:24:15;11.50;;;4.00;;
72198;SDS011;60103;51.014;16.992;2022-11-12T11:30:35;12.50;;;4.10;;
72198;SDS011;60103;51.014;16.992;2022-11-12T11:36:54;8.70;;;3.10;;
72198;SDS011;60103;51.014;16.992;2022-11-12T11:40:16;9.50;;;3.50;;
72198;SDS011;60103;51.014;16.992;2022-11-12T11:46:04;11.40;;;4.10;;
72198;SDS011;60103;51.014;16.992;2022-11-12T12:05:38;10.00;;;3.80;;
72198;SDS011;60103;51.014;16.992;2022-11-12T12:23:34;10.00;;;3.90;;
72198;SDS011;60103;51.014;16.992;2022-11-12T12:26:25;10.90;;;3.80;;
72198;SDS011;60103;51.014;16.992;2022-11-12T12:29:40;10.60;;;4.70;;
72198;SDS011;60103;51.014;16.992;2022-11-12T12:32:36;10.30;;;3.90;;
72198;SDS011;60103;51.014;16.992;2022-11-12T12:35:27;10.90;;;3.50;;
72198;SDS011;60103;51.014;16.992;2022-11-12T12:41:44;9.40;;;2.90;;
72198;SDS011;60103;51.014;16.992;2022-11-12T12:44:56;10.20;;;3.50;;
72198;SDS011;60103;51.014;16.992;2022-11-12T12:47:45;10.00;;;3.70;;
72198;SDS011;60103;51.014;16.992;2022-11-12T12:50:32;12.50;;;3.30;;
72198;SDS011;60103;51.014;16.992;2022-11-12T12:59:00;10.10;;;3.40;;
72198;SDS011;60103;51.014;16.992;2022-11-12T13:01:59;10.90;;;3.60;;
72198;SDS011;60103;51.014;16.992;2022-11-12T13:04:56;12.20;;;4.10;;
72198;SDS011;60103;51.014;16.992;2022-11-12T13:07:46;11.00;;;4.10;;
72198;SDS011;60103;51.014;16.992;2022-11-12T13:13:36;11.00;;;4.10;;
72198;SDS011;60103;51.014;16.992;2022-11-12T13:33:34;11.50;;;3.90;;
72198;SDS011;60103;51.014;16.992;2022-11-12T13:36:24;10.40;;;3.40;;
72198;SDS011;60103;51.014;16.992;2022-11-12T13:39:12;9.80;;;3.90;;
72198;SDS011;60103;51.014;16.992;2022-11-12T13:42:00;7.40;;;2.40;;
72198;SDS011;60103;51.014;16.992;2022-11-12T13:45:12;8.80;;;2.30;;
72198;SDS011;60103;51.014;16.992;2022-11-12T13:47:59;10.30;;;3.50;;
72198;SDS011;60103;51.014;16.992;2022-11-12T13:50:54;10.40;;;3.10;;
72198;SDS011;60103;51.014;16.992;2022-11-12T13:53:46;10.50;;;3.60;;
72198;SDS011;60103;51.014;16.992;2022-11-12T13:56:33;11.10;;;4.00;;
72198;SDS011;60103;51.014;16.992;2022-11-12T13:59:22;12.00;;;4.40;;
72198;SDS011;60103;51.014;16.992;2022-11-12T14:02:22;11.80;;;4.60;;
72198;SDS011;60103;51.014;16.992;2022-11-12T14:05:15;11.30;;;3.90;;
72198;SDS011;60103;51.014;16.992;2022-11-12T14:08:21;13.00;;;4.10;;
72198;SDS011;60103;51.014;16.992;2022-11-12T14:17:54;9.80;;;3.60;;
72198;SDS011;60103;51.014;16.992;2022-11-12T14:21:10;10.90;;;4.40;;
72198;SDS011;60103;51.014;16.992;2022-11-12T14:24:02;12.90;;;4.50;;
72198;SDS011;60103;51.014;16.992;2022-11-12T14:26:49;12.50;;;4.30;;
72198;SDS011;60103;51.014;16.992;2022-11-12T14:29:34;10.60;;;4.60;;
72198;SDS011;60103;51.014;16.992;2022-11-12T14:32:33;11.20;;;4.30;;
72198;SDS011;60103;51.014;16.992;2022-11-12T14:35:34;10.30;;;3.80;;
72198;SDS011;60103;51.014;16.992;2022-11-12T14:38:37;9.90;;;3.40;;
72198;SDS011;60103;51.014;16.992;2022-11-12T14:41:32;12.10;;;4.50;;
72198;SDS011;60103;51.014;16.992;2022-11-12T14:44:21;13.30;;;5.60;;
72198;SDS011;60103;51.014;16.992;2022-11-12T14:47:09;13.20;;;6.20;;
72198;SDS011;60103;51.014;16.992;2022-11-12T14:49:56;17.50;;;6.80;;
72198;SDS011;60103;51.014;16.992;2022-11-12T14:52:43;10.90;;;4.90;;
72198;SDS011;60103;51.014;16.992;2022-11-12T14:55:32;15.10;;;5.80;;
72198;SDS011;60103;51.014;16.992;2022-11-12T14:58:20;12.40;;;4.40;;
72198;SDS011;60103;51.014;16.992;2022-11-12T15:01:20;12.30;;;5.30;;
72198;SDS011;60103;51.014;16.992;2022-11-12T15:04:42;20.50;;;8.70;;
72198;SDS011;60103;51.014;16.992;2022-11-12T15:07:30;20.70;;;9.60;;
72198;SDS011;60103;51.014;16.992;2022-11-12T15:13:18;16.10;;;6.40;;
72198;SDS011;60103;51.014;16.992;2022-11-12T15:16:05;13.40;;;5.20;;
72198;SDS011;60103;51.014;16.992;2022-11-12T15:21:59;14.90;;;6.10;;
72198;SDS011;60103;51.014;16.992;2022-11-12T15:24:47;14.00;;;5.20;;
72198;SDS011;60103;51.014;16.992;2022-11-12T15:27:36;16.20;;;6.30;;
72198;SDS011;60103;51.014;16.992;2022-11-12T15:30:29;17.60;;;8.10;;
72198;SDS011;60103;51.014;16.992;2022-11-12T15:33:17;20.50;;;9.80;;
72198;SDS011;60103;51.014;16.992;2022-11-12T15:36:25;18.00;;;7.90;;
72198;SDS011;60103;51.014;16.992;2022-11-12T15:39:11;20.50;;;9.80;;
72198;SDS011;60103;51.014;16.992;2022-11-12T15:41:59;20.10;;;9.90;;
72198;SDS011;60103;51.014;16.992;2022-11-12T15:44:53;21.90;;;9.00;;
72198;SDS011;60103;51.014;16.992;2022-11-12T15:47:46;19.50;;;8.30;;
72198;SDS011;60103;51.014;16.992;2022-11-12T15:50:32;20.80;;;9.40;;
72198;SDS011;60103;51.014;16.992;2022-11-12T15:53:19;16.30;;;6.90;;
72198;SDS011;60103;51.014;16.992;2022-11-12T15:56:07;22.40;;;7.70;;
72198;SDS011;60103;51.014;16.992;2022-11-12T15:58:55;22.90;;;8.60;;
72198;SDS011;60103;51.014;16.992;2022-11-12T16:01:42;26.90;;;11.30;;
72198;SDS011;60103;51.014;16.992;2022-11-12T16:04:28;21.40;;;8.60;;
72198;SDS011;60103;51.014;16.992;2022-11-12T16:07:15;18.00;;;7.60;;
72198;SDS011;60103;51.014;16.992;2022-11-12T16:10:02;29.10;;;12.00;;
72198;SDS011;60103;51.014;16.992;2022-11-12T16:12:50;15.40;;;6.50;;
72198;SDS011;60103;51.014;16.992;2022-11-12T16:15:36;18.90;;;8.00;;
72198;SDS011;60103;51.014;16.992;2022-11-12T16:18:22;18.10;;;7.50;;
72198;SDS011;60103;51.014;16.992;2022-11-12T16:21:08;18.30;;;7.80;;
72198;SDS011;60103;51.014;16.992;2022-11-12T16:23:54;17.80;;;6.50;;
72198;SDS011;60103;51.014;16.992;2022-11-12T16:26:41;20.00;;;7.80;;
72198;SDS011;60103;51.014;16.992;2022-11-12T16:29:27;14.80;;;6.90;;
72198;SDS011;60103;51.014;16.992;2022-11-12T16:32:14;20.00;;;8.10;;
72198;SDS011;60103;51.014;16.992;2022-11-12T16:35:00;21.00;;;8.80;;
72198;SDS011;60103;51.014;16.992;2022-11-12T16:37:47;22.60;;;8.80;;
72198;SDS011;60103;51.014;16.992;2022-11-12T16:40:33;28.30;;;10.70;;
72198;SDS011;60103;51.014;16.992;2022-11-12T16:43:19;18.50;;;7.90;;
72198;SDS011;60103;51.014;16.992;2022-11-12T16:46:11;23.80;;;9.30;;
72198;SDS011;60103;51.014;16.992;2022-11-12T16:48:59;25.90;;;10.40;;
72198;SDS011;60103;51.014;16.992;2022-11-12T16:51:45;23.00;;;9.70;;
72198;SDS011;60103;51.014;16.992;2022-11-12T16:54:32;23.70;;;9.70;;
72198;SDS011;60103;51.014;16.992;2022-11-12T16:57:18;24.60;;;10.00;;
72198;SDS011;60103;51.014;16.992;2022-11-12T17:00:04;25.70;;;10.50;;
72198;SDS011;60103;51.014;16.992;2022-11-12T17:02:52;22.80;;;10.00;;
72198;SDS011;60103;51.014;16.992;2022-11-12T17:05:38;27.00;;;10.50;;
72198;SDS011;60103;51.014;16.992;2022-11-12T17:08:25;25.70;;;11.00;;
72198;SDS011;60103;51.014;16.992;2022-11-12T17:11:18;27.70;;;11.70;;
72198;SDS011;60103;51.014;16.992;2022-11-12T17:14:05;25.90;;;11.20;;
72198;SDS011;60103;51.014;16.992;2022-11-12T17:16:52;26.00;;;10.60;;
72198;SDS011;60103;51.014;16.992;2022-11-12T17:19:38;25.90;;;10.70;;
72198;SDS011;60103;51.014;16.992;2022-11-12T17:22:25;24.00;;;10.60;;
72198;SDS011;60103;51.014;16.992;2022-11-12T17:25:13;23.80;;;11.30;;
72198;SDS011;60103;51.014;16.992;2022-11-12T17:27:59;28.60;;;12.20;;
72198;SDS011;60103;51.014;16.992;2022-11-12T17:30:45;32.20;;;13.60;;
72198;SDS011;60103;51.014;16.992;2022-11-12T17:33:32;29.30;;;14.20;;
72198;SDS011;60103;51.014;16.992;2022-11-12T17:36:23;31.20;;;14.00;;
72198;SDS011;60103;51.014;16.992;2022-11-12T17:39:12;33.00;;;14.00;;
72198;SDS011;60103;51.014;16.992;2022-11-12T17:41:59;28.90;;;13.60;;
72198;SDS011;60103;51.014;16.992;2022-11-12T17:44:46;27.50;;;12.30;;
72198;SDS011;60103;51.014;16.992;2022-11-12T17:47:33;27.80;;;12.70;;
72198;SDS011;60103;51.014;16.992;2022-11-12T17:50:24;26.40;;;11.30;;
72198;SDS011;60103;51.014;16.992;2022-11-12T17:53:10;25.80;;;11.90;;
72198;SDS011;60103;51.014;16.992;2022-11-12T17:55:56;27.10;;;11.90;;
72198;SDS011;60103;51.014;16.992;2022-11-12T17:58:43;21.70;;;10.50;;
72198;SDS011;60103;51.014;16.992;2022-11-12T18:01:31;27.40;;;10.80;;
72198;SDS011;60103;51.014;16.992;2022-11-12T18:04:18;21.40;;;10.40;;
72198;SDS011;60103;51.014;16.992;2022-11-12T18:07:08;22.70;;;10.70;;
72198;SDS011;60103;51.014;16.992;2022-11-12T18:09:54;24.20;;;10.90;;
72198;SDS011;60103;51.014;16.992;2022-11-12T18:12:41;23.10;;;11.60;;
72198;SDS011;60103;51.014;16.992;2022-11-12T18:15:29;27.60;;;12.70;;
72198;SDS011;60103;51.014;16.992;2022-11-12T18:18:16;27.30;;;12.30;;
72198;SDS011;60103;51.014;16.992;2022-11-12T18:21:04;28.00;;;12.90;;
72198;SDS011;60103;51.014;16.992;2022-11-12T18:23:50;30.90;;;13.10;;
72198;SDS011;60103;51.014;16.992;2022-11-12T18:26:37;29.10;;;14.70;;
72198;SDS011;60103;51.014;16.992;2022-11-12T18:29:25;32.30;;;14.40;;
72198;SDS011;60103;51.014;16.992;2022-11-12T18:32:12;29.40;;;14.40;;
72198;SDS011;60103;51.014;16.992;2022-11-12T18:34:59;35.40;;;15.90;;
72198;SDS011;60103;51.014;16.992;2022-11-12T18:37:46;29.60;;;14.60;;
72198;SDS011;60103;51.014;16.992;2022-11-12T18:40:33;32.90;;;15.00;;
72198;SDS011;60103;51.014;16.992;2022-11-12T18:43:20;38.40;;;14.60;;
72198;SDS011;60103;51.014;16.992;2022-11-12T18:46:07;37.60;;;17.30;;
72198;SDS011;60103;51.014;16.992;2022-11-12T18:48:54;34.60;;;16.70;;
72198;SDS011;60103;51.014;16.992;2022-11-12T18:51:41;35.80;;;16.20;;
72198;SDS011;60103;51.014;16.992;2022-11-12T18:54:30;37.20;;;16.50;;
72198;SDS011;60103;51.014;16.992;2022-11-12T18:57:26;36.30;;;16.50;;
72198;SDS011;60103;51.014;16.992;2022-11-12T19:00:12;37.60;;;18.10;;
72198;SDS011;60103;51.014;16.992;2022-11-12T19:02:59;38.40;;;17.00;;
72198;SDS011;60103;51.014;16.992;2022-11-12T19:05:46;33.90;;;15.60;;
72198;SDS011;60103;51.014;16.992;2022-11-12T19:08:32;36.10;;;16.40;;
72198;SDS011;60103;51.014;16.992;2022-11-12T19:11:19;34.10;;;15.10;;
72198;SDS011;60103;51.014;16.992;2022-11-12T19:14:06;32.80;;;14.60;;
72198;SDS011;60103;51.014;16.992;2022-11-12T19:16:52;32.90;;;15.00;;
72198;SDS011;60103;51.014;16.992;2022-11-12T19:19:39;32.10;;;15.30;;
72198;SDS011;60103;51.014;16.992;2022-11-12T19:22:26;36.00;;;16.20;;
72198;SDS011;60103;51.014;16.992;2022-11-12T19:25:13;36.40;;;16.40;;
72198;SDS011;60103;51.014;16.992;2022-11-12T19:28:00;33.10;;;16.00;;
72198;SDS011;60103;51.014;16.992;2022-11-12T19:30:46;36.90;;;16.70;;
72198;SDS011;60103;51.014;16.992;2022-11-12T19:33:32;36.40;;;16.20;;
72198;SDS011;60103;51.014;16.992;2022-11-12T19:36:20;31.60;;;15.70;;
72198;SDS011;60103;51.014;16.992;2022-11-12T19:39:08;34.20;;;16.30;;
72198;SDS011;60103;51.014;16.992;2022-11-12T19:41:56;32.20;;;16.30;;
72198;SDS011;60103;51.014;16.992;2022-11-12T19:44:42;34.40;;;16.20;;
72198;SDS011;60103;51.014;16.992;2022-11-12T19:47:28;37.90;;;17.10;;
72198;SDS011;60103;51.014;16.992;2022-11-12T19:50:16;37.80;;;17.30;;
72198;SDS011;60103;51.014;16.992;2022-11-12T19:53:08;38.30;;;18.30;;
72198;SDS011;60103;51.014;16.992;2022-11-12T19:55:57;34.10;;;16.40;;
72198;SDS011;60103;51.014;16.992;2022-11-12T19:58:46;39.20;;;17.30;;
72198;SDS011;60103;51.014;16.992;2022-11-12T20:01:33;39.00;;;17.80;;
72198;SDS011;60103;51.014;16.992;2022-11-12T20:04:20;35.60;;;16.50;;
72198;SDS011;60103;51.014;16.992;2022-11-12T20:07:08;37.90;;;17.10;;
72198;SDS011;60103;51.014;16.992;2022-11-12T20:09:54;35.60;;;16.80;;
72198;SDS011;60103;51.014;16.992;2022-11-12T20:12:45;34.20;;;15.50;;
72198;SDS011;60103;51.014;16.992;2022-11-12T20:15:32;38.80;;;16.10;;
72198;SDS011;60103;51.014;16.992;2022-11-12T20:18:18;40.00;;;16.90;;
72198;SDS011;60103;51.014;16.992;2022-11-12T20:21:09;34.80;;;18.10;;
72198;SDS011;60103;51.014;16.992;2022-11-12T20:23:55;36.40;;;18.50;;
72198;SDS011;60103;51.014;16.992;2022-11-12T20:26:42;37.20;;;18.50;;
72198;SDS011;60103;51.014;16.992;2022-11-12T20:29:28;41.40;;;19.60;;
72198;SDS011;60103;51.014;16.992;2022-11-12T20:32:14;46.70;;;20.60;;
72198;SDS011;60103;51.014;16.992;2022-11-12T20:35:01;43.50;;;20.50;;
72198;SDS011;60103;51.014;16.992;2022-11-12T20:37:58;44.20;;;20.10;;
72198;SDS011;60103;51.014;16.992;2022-11-12T20:40:45;47.40;;;21.30;;
72198;SDS011;60103;51.014;16.992;2022-11-12T20:43:32;44.00;;;20.60;;
72198;SDS011;60103;51.014;16.992;2022-11-12T20:46:18;52.30;;;23.10;;
72198;SDS011;60103;51.014;16.992;2022-11-12T20:49:04;48.00;;;22.90;;
72198;SDS011;60103;51.014;16.992;2022-11-12T20:51:52;47.20;;;21.20;;
72198;SDS011;60103;51.014;16.992;2022-11-12T20:54:40;46.90;;;21.40;;
72198;SDS011;60103;51.014;16.992;2022-11-12T20:57:26;47.30;;;22.20;;
72198;SDS011;60103;51.014;16.992;2022-11-12T21:00:13;45.10;;;20.50;;
72198;SDS011;60103;51.014;16.992;2022-11-12T21:03:08;45.60;;;20.90;;
72198;SDS011;60103;51.014;16.992;2022-11-12T21:06:00;48.10;;;22.30;;
72198;SDS011;60103;51.014;16.992;2022-11-12T21:08:48;47.90;;;21.70;;
72198;SDS011;60103;51.014;16.992;2022-11-12T21:11:35;46.10;;;21.00;;
72198;SDS011;60103;51.014;16.992;2022-11-12T21:14:21;45.00;;;21.50;;
72198;SDS011;60103;51.014;16.992;2022-11-12T21:17:07;48.80;;;22.10;;
72198;SDS011;60103;51.014;16.992;2022-11-12T21:19:54;38.10;;;17.70;;
72198;SDS011;60103;51.014;16.992;2022-11-12T21:22:41;42.60;;;19.40;;
72198;SDS011;60103;51.014;16.992;2022-11-12T21:25:28;45.30;;;20.80;;
72198;SDS011;60103;51.014;16.992;2022-11-12T21:28:14;46.20;;;21.90;;
72198;SDS011;60103;51.014;16.992;2022-11-12T21:31:01;45.00;;;20.50;;
72198;SDS011;60103;51.014;16.992;2022-11-12T21:34:01;42.50;;;21.00;;
72198;SDS011;60103;51.014;16.992;2022-11-12T21:36:48;39.30;;;18.60;;
72198;SDS011;60103;51.014;16.992;2022-11-12T21:39:36;43.30;;;19.10;;
72198;SDS011;60103;51.014;16.992;2022-11-12T21:42:22;40.20;;;18.90;;
72198;SDS011;60103;51.014;16.992;2022-11-12T21:45:09;37.70;;;15.90;;
72198;SDS011;60103;51.014;16.992;2022-11-12T21:47:56;40.10;;;18.20;;
72198;SDS011;60103;51.014;16.992;2022-11-12T21:50:42;35.30;;;16.20;;
72198;SDS011;60103;51.014;16.992;2022-11-12T21:53:27;35.70;;;16.20;;
72198;SDS011;60103;51.014;16.992;2022-11-12T21:56:17;38.60;;;18.10;;
72198;SDS011;60103;51.014;16.992;2022-11-12T21:59:03;39.10;;;17.10;;
72198;SDS011;60103;51.014;16.992;2022-11-12T22:01:50;38.50;;;16.80;;
72198;SDS011;60103;51.014;16.992;2022-11-12T22:04:36;36.50;;;16.80;;
72198;SDS011;60103;51.014;16.992;2022-11-12T22:07:22;35.30;;;15.60;;
72198;SDS011;60103;51.014;16.992;2022-11-12T22:10:08;40.10;;;17.10;;
72198;SDS011;60103;51.014;16.992;2022-11-12T22:12:56;38.70;;;17.90;;
72198;SDS011;60103;51.014;16.992;2022-11-12T22:16:05;41.30;;;18.80;;
72198;SDS011;60103;51.014;16.992;2022-11-12T22:18:58;36.10;;;16.50;;
72198;SDS011;60103;51.014;16.992;2022-11-12T22:21:44;36.90;;;15.80;;
72198;SDS011;60103;51.014;16.992;2022-11-12T22:24:30;38.30;;;16.10;;
72198;SDS011;60103;51.014;16.992;2022-11-12T22:27:17;34.70;;;15.90;;
72198;SDS011;60103;51.014;16.992;2022-11-12T22:30:03;32.70;;;15.70;;
72198;SDS011;60103;51.014;16.992;2022-11-12T22:32:49;39.40;;;17.70;;
72198;SDS011;60103;51.014;16.992;2022-11-12T22:35:35;36.30;;;17.50;;
72198;SDS011;60103;51.014;16.992;2022-11-12T22:38:21;32.90;;;16.00;;
72198;SDS011;60103;51.014;16.992;2022-11-12T22:41:11;36.60;;;17.20;;
72198;SDS011;60103;51.014;16.992;2022-11-12T22:43:59;39.10;;;18.60;;
72198;SDS011;60103;51.014;16.992;2022-11-12T22:46:46;37.50;;;17.30;;
72198;SDS011;60103;51.014;16.992;2022-11-12T22:49:32;36.70;;;17.00;;
72198;SDS011;60103;51.014;16.992;2022-11-12T22:52:18;33.20;;;16.40;;
72198;SDS011;60103;51.014;16.992;2022-11-12T22:55:05;38.50;;;16.30;;
72198;SDS011;60103;51.014;16.992;2022-11-12T22:57:51;32.80;;;16.80;;
72198;SDS011;60103;51.014;16.992;2022-11-12T23:00:37;34.00;;;16.70;;
72198;SDS011;60103;51.014;16.992;2022-11-12T23:03:24;33.80;;;16.80;;
72198;SDS011;60103;51.014;16.992;2022-11-12T23:06:10;37.60;;;18.40;;
72198;SDS011;60103;51.014;16.992;2022-11-12T23:08:57;40.20;;;17.90;;